sensor_id;sensor_type;location;lat;lon;timestamp;P1;durP1;ratioP1;P2;durP2;ratioP2
47812;SDS011;34221;45.296;9.516;2022-08-01T00:00:00;10.38;;;8.75;;
47812;SDS011;34221;45.296;9.516;2022-08-01T00:00:21;11.82;;;8.90;;
47812;SDS011;34221;45.296;9.516;2022-08-01T00:00:36;11.00;;;8.80;;
47812;SDS011;34221;45.296;9.516;2022-08-01T00:00:51;11.05;;;8.68;;
47812;SDS011;34221;45.296;9.516;2022-08-01T00:01:06;12.80;;;9.18;;
47812;SDS011;34221;45.296;9.516;2022-08-01T00:01:21;11.73;;;8.77;;
47812;SDS011;34221;45.296;9.516;2022-08-01T00:01:36;12.13;;;9.05;;
47812;SDS011;34221;45.296;9.516;2022-08-01T00:01:51;12.55;;;9.48;;
47812;SDS011;34221;45.296;9.516;2022-08-01T00:02:06;12.02;;;8.95;;
47812;SDS011;34221;45.296;9.516;2022-08-01T00:02:21;13.32;;;9.23;;
47812;SDS011;34221;45.296;9.516;2022-08-01T00:02:36;12.43;;;9.50;;
47812;SDS011;34221;45.296;9.516;2022-08-01T00:02:52;11.07;;;9.10;;
47812;SDS011;34221;45.296;9.516;2022-08-01T00:03:07;13.05;;;8.80;;
47812;SDS011;34221;45.296;9.516;2022-08-01T00:03:21;13.23;;;9.20;;
47812;SDS011;34221;45.296;9.516;2022-08-01T00:03:36;12.00;;;9.40;;
47812;SDS011;34221;45.296;9.516;2022-08-01T00:03:51;12.15;;;9.15;;
47812;SDS011;34221;45.296;9.516;2022-08-01T00:04:07;11.90;;;9.13;;
47812;SDS011;34221;45.296;9.516;2022-08-01T00:04:22;13.52;;;9.38;;
47812;SDS011;34221;45.296;9.516;2022-08-01T00:04:37;13.15;;;8.90;;
47812;SDS011;34221;45.296;9.516;2022-08-01T00:04:53;13.23;;;8.85;;
47812;SDS011;34221;45.296;9.516;2022-08-01T00:05:11;12.77;;;9.80;;
47812;SDS011;34221;45.296;9.516;2022-08-01T00:05:26;12.82;;;9.52;;
47812;SDS011;34221;45.296;9.516;2022-08-01T00:05:41;12.90;;;9.20;;
47812;SDS011;34221;45.296;9.516;2022-08-01T00:05:58;12.20;;;9.25;;
47812;SDS011;34221;45.296;9.516;2022-08-01T00:06:13;12.68;;;9.32;;
47812;SDS011;34221;45.296;9.516;2022-08-01T00:06:28;13.75;;;9.50;;
47812;SDS011;34221;45.296;9.516;2022-08-01T00:06:43;12.15;;;9.10;;
47812;SDS011;34221;45.296;9.516;2022-08-01T00:06:58;11.18;;;8.40;;
47812;SDS011;34221;45.296;9.516;2022-08-01T00:07:13;10.55;;;8.18;;
47812;SDS011;34221;45.296;9.516;2022-08-01T00:07:28;10.35;;;8.40;;
47812;SDS011;34221;45.296;9.516;2022-08-01T00:07:43;11.23;;;8.80;;
47812;SDS011;34221;45.296;9.516;2022-08-01T00:07:58;13.15;;;9.00;;
47812;SDS011;34221;45.296;9.516;2022-08-01T00:08:13;12.75;;;8.98;;
47812;SDS011;34221;45.296;9.516;2022-08-01T00:08:28;10.73;;;8.83;;
47812;SDS011;34221;45.296;9.516;2022-08-01T00:08:43;11.40;;;8.70;;
47812;SDS011;34221;45.296;9.516;2022-08-01T00:08:58;12.55;;;9.15;;
47812;SDS011;34221;45.296;9.516;2022-08-01T00:09:13;11.80;;;9.30;;
47812;SDS011;34221;45.296;9.516;2022-08-01T00:09:28;10.95;;;8.40;;
47812;SDS011;34221;45.296;9.516;2022-08-01T00:09:43;11.93;;;8.20;;
47812;SDS011;34221;45.296;9.516;2022-08-01T00:09:58;12.57;;;9.05;;
47812;SDS011;34221;45.296;9.516;2022-08-01T00:10:14;14.10;;;9.68;;
47812;SDS011;34221;45.296;9.516;2022-08-01T00:10:30;15.13;;;9.93;;
47812;SDS011;34221;45.296;9.516;2022-08-01T00:10:45;13.25;;;9.43;;
47812;SDS011;34221;45.296;9.516;2022-08-01T00:11:35;13.80;;;9.43;;
47812;SDS011;34221;45.296;9.516;2022-08-01T00:11:50;12.20;;;9.32;;
47812;SDS011;34221;45.296;9.516;2022-08-01T00:12:05;11.98;;;9.35;;
47812;SDS011;34221;45.296;9.516;2022-08-01T00:12:20;12.95;;;9.20;;
47812;SDS011;34221;45.296;9.516;2022-08-01T00:12:35;12.30;;;8.88;;
47812;SDS011;34221;45.296;9.516;2022-08-01T00:12:50;11.02;;;8.73;;
47812;SDS011;34221;45.296;9.516;2022-08-01T00:13:05;11.70;;;9.18;;
47812;SDS011;34221;45.296;9.516;2022-08-01T00:13:20;14.27;;;9.65;;
47812;SDS011;34221;45.296;9.516;2022-08-01T00:13:35;14.73;;;9.65;;
47812;SDS011;34221;45.296;9.516;2022-08-01T00:13:50;14.75;;;9.02;;
47812;SDS011;34221;45.296;9.516;2022-08-01T00:14:05;14.25;;;8.52;;
47812;SDS011;34221;45.296;9.516;2022-08-01T00:14:20;12.20;;;8.82;;
47812;SDS011;34221;45.296;9.516;2022-08-01T00:14:35;11.32;;;8.90;;
47812;SDS011;34221;45.296;9.516;2022-08-01T00:15:11;12.98;;;8.65;;
47812;SDS011;34221;45.296;9.516;2022-08-01T00:15:30;12.93;;;8.57;;
47812;SDS011;34221;45.296;9.516;2022-08-01T00:15:46;10.93;;;8.70;;
47812;SDS011;34221;45.296;9.516;2022-08-01T00:16:01;10.10;;;8.02;;
47812;SDS011;34221;45.296;9.516;2022-08-01T00:16:16;10.77;;;8.27;;
47812;SDS011;34221;45.296;9.516;2022-08-01T00:16:31;11.98;;;8.90;;
47812;SDS011;34221;45.296;9.516;2022-08-01T00:16:46;11.52;;;9.00;;
47812;SDS011;34221;45.296;9.516;2022-08-01T00:17:01;11.93;;;9.07;;
47812;SDS011;34221;45.296;9.516;2022-08-01T00:17:16;13.13;;;8.68;;
47812;SDS011;34221;45.296;9.516;2022-08-01T00:17:31;12.43;;;8.55;;
47812;SDS011;34221;45.296;9.516;2022-08-01T00:17:46;12.20;;;8.80;;
47812;SDS011;34221;45.296;9.516;2022-08-01T00:18:01;14.13;;;9.20;;
47812;SDS011;34221;45.296;9.516;2022-08-01T00:18:16;13.65;;;9.38;;
47812;SDS011;34221;45.296;9.516;2022-08-01T00:18:31;11.60;;;9.43;;
47812;SDS011;34221;45.296;9.516;2022-08-01T00:18:46;10.95;;;9.48;;
47812;SDS011;34221;45.296;9.516;2022-08-01T00:19:01;11.30;;;9.20;;
47812;SDS011;34221;45.296;9.516;2022-08-01T00:19:17;11.85;;;9.15;;
47812;SDS011;34221;45.296;9.516;2022-08-01T00:19:32;13.27;;;9.55;;
47812;SDS011;34221;45.296;9.516;2022-08-01T00:19:48;12.38;;;9.07;;
47812;SDS011;34221;45.296;9.516;2022-08-01T00:20:03;13.07;;;8.77;;
47812;SDS011;34221;45.296;9.516;2022-08-01T00:20:23;12.80;;;9.25;;
47812;SDS011;34221;45.296;9.516;2022-08-01T00:20:38;12.15;;;8.95;;
47812;SDS011;34221;45.296;9.516;2022-08-01T00:20:53;11.93;;;8.35;;
47812;SDS011;34221;45.296;9.516;2022-08-01T00:21:08;13.30;;;8.98;;
47812;SDS011;34221;45.296;9.516;2022-08-01T00:21:23;13.63;;;9.60;;
47812;SDS011;34221;45.296;9.516;2022-08-01T00:21:39;12.57;;;9.30;;
47812;SDS011;34221;45.296;9.516;2022-08-01T00:21:53;13.90;;;9.30;;
47812;SDS011;34221;45.296;9.516;2022-08-01T00:22:08;12.98;;;9.15;;
47812;SDS011;34221;45.296;9.516;2022-08-01T00:22:23;12.27;;;9.05;;
47812;SDS011;34221;45.296;9.516;2022-08-01T00:22:38;12.43;;;8.75;;
47812;SDS011;34221;45.296;9.516;2022-08-01T00:22:54;11.55;;;8.40;;
47812;SDS011;34221;45.296;9.516;2022-08-01T00:23:08;10.85;;;8.25;;
47812;SDS011;34221;45.296;9.516;2022-08-01T00:23:23;12.25;;;8.60;;
47812;SDS011;34221;45.296;9.516;2022-08-01T00:23:38;13.60;;;9.27;;
47812;SDS011;34221;45.296;9.516;2022-08-01T00:23:53;13.27;;;9.82;;
47812;SDS011;34221;45.296;9.516;2022-08-01T00:24:08;13.88;;;9.63;;
47812;SDS011;34221;45.296;9.516;2022-08-01T00:24:23;13.60;;;9.63;;
47812;SDS011;34221;45.296;9.516;2022-08-01T00:24:38;11.95;;;9.95;;
47812;SDS011;34221;45.296;9.516;2022-08-01T00:24:53;13.65;;;9.50;;
47812;SDS011;34221;45.296;9.516;2022-08-01T00:25:08;13.95;;;8.98;;
47812;SDS011;34221;45.296;9.516;2022-08-01T00:25:23;12.23;;;9.00;;
47812;SDS011;34221;45.296;9.516;2022-08-01T00:25:38;12.48;;;9.00;;
47812;SDS011;34221;45.296;9.516;2022-08-01T00:26:28;13.02;;;8.82;;
47812;SDS011;34221;45.296;9.516;2022-08-01T00:26:43;12.32;;;8.90;;
47812;SDS011;34221;45.296;9.516;2022-08-01T00:26:58;12.57;;;9.38;;
47812;SDS011;34221;45.296;9.516;2022-08-01T00:27:13;11.98;;;9.07;;
47812;SDS011;34221;45.296;9.516;2022-08-01T00:27:28;11.48;;;9.25;;
47812;SDS011;34221;45.296;9.516;2022-08-01T00:27:43;13.98;;;9.68;;
47812;SDS011;34221;45.296;9.516;2022-08-01T00:27:58;14.05;;;9.30;;
47812;SDS011;34221;45.296;9.516;2022-08-01T00:28:13;12.85;;;9.23;;
47812;SDS011;34221;45.296;9.516;2022-08-01T00:28:28;13.23;;;9.27;;
47812;SDS011;34221;45.296;9.516;2022-08-01T00:28:43;13.23;;;9.57;;
47812;SDS011;34221;45.296;9.516;2022-08-01T00:28:58;13.77;;;9.65;;
47812;SDS011;34221;45.296;9.516;2022-08-01T00:29:13;13.13;;;8.95;;
47812;SDS011;34221;45.296;9.516;2022-08-01T00:29:28;12.05;;;8.60;;
47812;SDS011;34221;45.296;9.516;2022-08-01T00:29:43;12.00;;;8.88;;
47812;SDS011;34221;45.296;9.516;2022-08-01T00:29:57;13.15;;;8.93;;
47812;SDS011;34221;45.296;9.516;2022-08-01T00:30:13;13.30;;;8.75;;
47812;SDS011;34221;45.296;9.516;2022-08-01T00:30:28;11.88;;;9.05;;
47812;SDS011;34221;45.296;9.516;2022-08-01T00:30:43;13.50;;;9.80;;
47812;SDS011;34221;45.296;9.516;2022-08-01T00:30:58;13.18;;;9.90;;
47812;SDS011;34221;45.296;9.516;2022-08-01T00:31:13;12.20;;;9.43;;
47812;SDS011;34221;45.296;9.516;2022-08-01T00:31:27;13.45;;;9.48;;
47812;SDS011;34221;45.296;9.516;2022-08-01T00:31:42;13.20;;;10.05;;
47812;SDS011;34221;45.296;9.516;2022-08-01T00:32:18;13.35;;;10.40;;
47812;SDS011;34221;45.296;9.516;2022-08-01T00:32:33;12.40;;;10.55;;
47812;SDS011;34221;45.296;9.516;2022-08-01T00:32:48;12.20;;;10.20;;
47812;SDS011;34221;45.296;9.516;2022-08-01T00:33:03;13.27;;;9.98;;
47812;SDS011;34221;45.296;9.516;2022-08-01T00:33:18;13.68;;;9.95;;
47812;SDS011;34221;45.296;9.516;2022-08-01T00:33:33;13.68;;;10.13;;
47812;SDS011;34221;45.296;9.516;2022-08-01T00:33:48;14.07;;;10.50;;
47812;SDS011;34221;45.296;9.516;2022-08-01T00:34:03;12.90;;;10.32;;
47812;SDS011;34221;45.296;9.516;2022-08-01T00:34:17;12.30;;;10.20;;
47812;SDS011;34221;45.296;9.516;2022-08-01T00:34:33;12.23;;;9.68;;
47812;SDS011;34221;45.296;9.516;2022-08-01T00:34:48;11.85;;;9.57;;
47812;SDS011;34221;45.296;9.516;2022-08-01T00:35:03;11.85;;;10.25;;
47812;SDS011;34221;45.296;9.516;2022-08-01T00:35:18;13.00;;;10.65;;
47812;SDS011;34221;45.296;9.516;2022-08-01T00:35:33;13.90;;;10.48;;
47812;SDS011;34221;45.296;9.516;2022-08-01T00:35:48;13.75;;;10.32;;
47812;SDS011;34221;45.296;9.516;2022-08-01T00:36:03;13.25;;;10.25;;
47812;SDS011;34221;45.296;9.516;2022-08-01T00:36:18;14.20;;;9.95;;
47812;SDS011;34221;45.296;9.516;2022-08-01T00:36:33;15.73;;;10.20;;
47812;SDS011;34221;45.296;9.516;2022-08-01T00:36:48;16.10;;;10.20;;
47812;SDS011;34221;45.296;9.516;2022-08-01T00:37:03;15.10;;;9.85;;
47812;SDS011;34221;45.296;9.516;2022-08-01T00:37:18;13.35;;;9.90;;
47812;SDS011;34221;45.296;9.516;2022-08-01T00:37:33;16.77;;;10.40;;
47812;SDS011;34221;45.296;9.516;2022-08-01T00:37:48;16.15;;;10.48;;
47812;SDS011;34221;45.296;9.516;2022-08-01T00:38:02;12.52;;;9.85;;
47812;SDS011;34221;45.296;9.516;2022-08-01T00:38:17;13.73;;;10.02;;
47812;SDS011;34221;45.296;9.516;2022-08-01T00:38:32;13.73;;;10.48;;
47812;SDS011;34221;45.296;9.516;2022-08-01T00:38:47;13.82;;;11.23;;
47812;SDS011;34221;45.296;9.516;2022-08-01T00:39:02;14.05;;;11.70;;
47812;SDS011;34221;45.296;9.516;2022-08-01T00:39:17;16.52;;;11.82;;
47812;SDS011;34221;45.296;9.516;2022-08-01T00:39:32;16.80;;;11.75;;
47812;SDS011;34221;45.296;9.516;2022-08-01T00:39:47;14.30;;;11.60;;
47812;SDS011;34221;45.296;9.516;2022-08-01T00:40:03;13.68;;;11.50;;
47812;SDS011;34221;45.296;9.516;2022-08-01T00:40:19;13.70;;;11.40;;
47812;SDS011;34221;45.296;9.516;2022-08-01T00:40:34;13.13;;;11.38;;
47812;SDS011;34221;45.296;9.516;2022-08-01T00:40:49;15.38;;;12.18;;
47812;SDS011;34221;45.296;9.516;2022-08-01T00:41:04;16.83;;;13.07;;
47812;SDS011;34221;45.296;9.516;2022-08-01T00:41:19;15.68;;;12.70;;
47812;SDS011;34221;45.296;9.516;2022-08-01T00:41:34;15.30;;;12.10;;
47812;SDS011;34221;45.296;9.516;2022-08-01T00:41:49;15.40;;;11.98;;
47812;SDS011;34221;45.296;9.516;2022-08-01T00:42:09;15.20;;;11.82;;
47812;SDS011;34221;45.296;9.516;2022-08-01T00:42:25;14.38;;;11.18;;
47812;SDS011;34221;45.296;9.516;2022-08-01T00:42:40;16.27;;;11.05;;
47812;SDS011;34221;45.296;9.516;2022-08-01T00:42:55;16.45;;;11.68;;
47812;SDS011;34221;45.296;9.516;2022-08-01T00:43:10;16.83;;;12.38;;
47812;SDS011;34221;45.296;9.516;2022-08-01T00:43:25;17.00;;;12.00;;
47812;SDS011;34221;45.296;9.516;2022-08-01T00:43:40;16.85;;;11.77;;
47812;SDS011;34221;45.296;9.516;2022-08-01T00:43:55;17.83;;;12.02;;
47812;SDS011;34221;45.296;9.516;2022-08-01T00:44:10;16.98;;;12.10;;
47812;SDS011;34221;45.296;9.516;2022-08-01T00:44:25;14.88;;;12.38;;
47812;SDS011;34221;45.296;9.516;2022-08-01T00:44:41;14.90;;;11.88;;
47812;SDS011;34221;45.296;9.516;2022-08-01T00:44:56;15.15;;;11.50;;
47812;SDS011;34221;45.296;9.516;2022-08-01T00:45:11;15.23;;;11.95;;
47812;SDS011;34221;45.296;9.516;2022-08-01T00:45:26;15.18;;;12.23;;
47812;SDS011;34221;45.296;9.516;2022-08-01T00:45:41;15.30;;;12.45;;
47812;SDS011;34221;45.296;9.516;2022-08-01T00:45:56;16.17;;;12.48;;
47812;SDS011;34221;45.296;9.516;2022-08-01T00:46:11;16.70;;;12.60;;
47812;SDS011;34221;45.296;9.516;2022-08-01T00:46:26;15.20;;;12.43;;
47812;SDS011;34221;45.296;9.516;2022-08-01T00:46:41;15.30;;;12.27;;
47812;SDS011;34221;45.296;9.516;2022-08-01T00:46:56;16.10;;;12.23;;
47812;SDS011;34221;45.296;9.516;2022-08-01T00:47:11;15.68;;;11.68;;
47812;SDS011;34221;45.296;9.516;2022-08-01T00:47:26;15.32;;;11.55;;
47812;SDS011;34221;45.296;9.516;2022-08-01T00:47:41;15.52;;;11.95;;
47812;SDS011;34221;45.296;9.516;2022-08-01T00:47:56;15.98;;;12.55;;
47812;SDS011;34221;45.296;9.516;2022-08-01T00:48:11;14.48;;;12.10;;
47812;SDS011;34221;45.296;9.516;2022-08-01T00:48:26;13.98;;;11.63;;
47812;SDS011;34221;45.296;9.516;2022-08-01T00:48:41;13.98;;;11.80;;
47812;SDS011;34221;45.296;9.516;2022-08-01T00:48:56;13.00;;;11.60;;
47812;SDS011;34221;45.296;9.516;2022-08-01T00:49:12;13.90;;;11.07;;
47812;SDS011;34221;45.296;9.516;2022-08-01T00:49:27;15.82;;;11.60;;
47812;SDS011;34221;45.296;9.516;2022-08-01T00:49:42;15.88;;;11.55;;
47812;SDS011;34221;45.296;9.516;2022-08-01T00:49:57;14.82;;;10.90;;
47812;SDS011;34221;45.296;9.516;2022-08-01T00:50:12;16.58;;;11.18;;
47812;SDS011;34221;45.296;9.516;2022-08-01T00:50:27;17.20;;;11.35;;
47812;SDS011;34221;45.296;9.516;2022-08-01T00:50:42;14.73;;;11.68;;
47812;SDS011;34221;45.296;9.516;2022-08-01T00:50:57;14.38;;;11.77;;
47812;SDS011;34221;45.296;9.516;2022-08-01T00:51:13;16.35;;;11.68;;
47812;SDS011;34221;45.296;9.516;2022-08-01T00:51:28;17.15;;;12.43;;
47812;SDS011;34221;45.296;9.516;2022-08-01T00:51:44;16.67;;;12.43;;
47812;SDS011;34221;45.296;9.516;2022-08-01T00:51:59;15.32;;;11.95;;
47812;SDS011;34221;45.296;9.516;2022-08-01T00:52:17;14.68;;;12.13;;
47812;SDS011;34221;45.296;9.516;2022-08-01T00:52:32;16.52;;;11.77;;
47812;SDS011;34221;45.296;9.516;2022-08-01T00:52:48;15.13;;;11.48;;
47812;SDS011;34221;45.296;9.516;2022-08-01T00:53:05;14.18;;;12.02;;
47812;SDS011;34221;45.296;9.516;2022-08-01T00:53:20;14.13;;;12.68;;
47812;SDS011;34221;45.296;9.516;2022-08-01T00:53:35;14.63;;;12.60;;
47812;SDS011;34221;45.296;9.516;2022-08-01T00:53:50;15.65;;;12.18;;
47812;SDS011;34221;45.296;9.516;2022-08-01T00:54:05;16.85;;;12.10;;
47812;SDS011;34221;45.296;9.516;2022-08-01T00:54:21;16.58;;;11.93;;
47812;SDS011;34221;45.296;9.516;2022-08-01T00:54:39;16.35;;;12.45;;
47812;SDS011;34221;45.296;9.516;2022-08-01T00:54:54;17.10;;;13.60;;
47812;SDS011;34221;45.296;9.516;2022-08-01T00:55:09;17.93;;;13.60;;
47812;SDS011;34221;45.296;9.516;2022-08-01T00:55:27;17.10;;;12.87;;
47812;SDS011;34221;45.296;9.516;2022-08-01T00:55:43;17.00;;;12.82;;
47812;SDS011;34221;45.296;9.516;2022-08-01T00:55:58;19.85;;;13.20;;
47812;SDS011;34221;45.296;9.516;2022-08-01T00:56:13;18.98;;;13.40;;
47812;SDS011;34221;45.296;9.516;2022-08-01T00:56:28;16.98;;;12.98;;
47812;SDS011;34221;45.296;9.516;2022-08-01T00:56:44;16.67;;;12.80;;
47812;SDS011;34221;45.296;9.516;2022-08-01T00:56:59;16.20;;;12.77;;
47812;SDS011;34221;45.296;9.516;2022-08-01T00:57:15;15.52;;;13.10;;
47812;SDS011;34221;45.296;9.516;2022-08-01T00:57:30;16.42;;;13.43;;
47812;SDS011;34221;45.296;9.516;2022-08-01T00:57:45;17.33;;;13.38;;
47812;SDS011;34221;45.296;9.516;2022-08-01T00:58:02;15.57;;;13.15;;
47812;SDS011;34221;45.296;9.516;2022-08-01T00:58:17;15.98;;;13.30;;
47812;SDS011;34221;45.296;9.516;2022-08-01T00:58:32;15.43;;;13.15;;
47812;SDS011;34221;45.296;9.516;2022-08-01T00:58:48;15.48;;;13.13;;
47812;SDS011;34221;45.296;9.516;2022-08-01T00:59:03;15.15;;;12.70;;
47812;SDS011;34221;45.296;9.516;2022-08-01T00:59:18;14.68;;;12.43;;
47812;SDS011;34221;45.296;9.516;2022-08-01T00:59:36;15.57;;;13.23;;
47812;SDS011;34221;45.296;9.516;2022-08-01T00:59:51;17.40;;;13.30;;
47812;SDS011;34221;45.296;9.516;2022-08-01T01:00:07;17.42;;;13.15;;
47812;SDS011;34221;45.296;9.516;2022-08-01T01:00:23;16.38;;;13.07;;
47812;SDS011;34221;45.296;9.516;2022-08-01T01:00:38;16.92;;;12.60;;
47812;SDS011;34221;45.296;9.516;2022-08-01T01:00:53;17.13;;;12.35;;
47812;SDS011;34221;45.296;9.516;2022-08-01T01:01:08;15.15;;;12.13;;
47812;SDS011;34221;45.296;9.516;2022-08-01T01:01:24;13.18;;;11.60;;
47812;SDS011;34221;45.296;9.516;2022-08-01T01:01:39;13.30;;;11.45;;
47812;SDS011;34221;45.296;9.516;2022-08-01T01:01:54;14.88;;;11.98;;
47812;SDS011;34221;45.296;9.516;2022-08-01T01:02:09;14.52;;;11.90;;
47812;SDS011;34221;45.296;9.516;2022-08-01T01:02:24;14.02;;;11.65;;
47812;SDS011;34221;45.296;9.516;2022-08-01T01:02:39;14.18;;;12.05;;
47812;SDS011;34221;45.296;9.516;2022-08-01T01:02:54;16.83;;;12.00;;
47812;SDS011;34221;45.296;9.516;2022-08-01T01:03:09;18.42;;;12.20;;
47812;SDS011;34221;45.296;9.516;2022-08-01T01:03:24;16.63;;;12.90;;
47812;SDS011;34221;45.296;9.516;2022-08-01T01:03:58;14.10;;;11.80;;
47812;SDS011;34221;45.296;9.516;2022-08-01T01:04:13;15.15;;;12.15;;
47812;SDS011;34221;45.296;9.516;2022-08-01T01:04:28;16.02;;;11.88;;
47812;SDS011;34221;45.296;9.516;2022-08-01T01:04:43;15.65;;;11.95;;
47812;SDS011;34221;45.296;9.516;2022-08-01T01:04:58;17.77;;;12.52;;
47812;SDS011;34221;45.296;9.516;2022-08-01T01:05:13;19.33;;;12.63;;
47812;SDS011;34221;45.296;9.516;2022-08-01T01:05:28;17.52;;;12.35;;
47812;SDS011;34221;45.296;9.516;2022-08-01T01:05:51;15.52;;;11.50;;
47812;SDS011;34221;45.296;9.516;2022-08-01T01:07:29;15.15;;;11.95;;
47812;SDS011;34221;45.296;9.516;2022-08-01T01:07:56;17.85;;;11.98;;
47812;SDS011;34221;45.296;9.516;2022-08-01T01:08:24;16.88;;;12.20;;
47812;SDS011;34221;45.296;9.516;2022-08-01T01:08:49;14.38;;;11.40;;
47812;SDS011;34221;45.296;9.516;2022-08-01T01:09:55;13.27;;;11.43;;
47812;SDS011;34221;45.296;9.516;2022-08-01T01:11:26;17.83;;;12.43;;
47812;SDS011;34221;45.296;9.516;2022-08-01T01:12:07;15.13;;;11.53;;
47812;SDS011;34221;45.296;9.516;2022-08-01T01:14:02;15.38;;;12.18;;
47812;SDS011;34221;45.296;9.516;2022-08-01T01:14:33;14.07;;;11.55;;
47812;SDS011;34221;45.296;9.516;2022-08-01T01:15:43;14.50;;;11.48;;
47812;SDS011;34221;45.296;9.516;2022-08-01T01:16:13;14.18;;;11.55;;
47812;SDS011;34221;45.296;9.516;2022-08-01T01:16:32;14.80;;;11.75;;
47812;SDS011;34221;45.296;9.516;2022-08-01T01:16:49;15.40;;;11.77;;
47812;SDS011;34221;45.296;9.516;2022-08-01T01:17:07;14.05;;;11.63;;
47812;SDS011;34221;45.296;9.516;2022-08-01T01:17:35;13.57;;;11.77;;
47812;SDS011;34221;45.296;9.516;2022-08-01T01:18:47;13.00;;;11.60;;
47812;SDS011;34221;45.296;9.516;2022-08-01T01:19:08;15.93;;;12.05;;
47812;SDS011;34221;45.296;9.516;2022-08-01T01:19:30;15.88;;;11.20;;
47812;SDS011;34221;45.296;9.516;2022-08-01T01:19:49;14.07;;;11.18;;
47812;SDS011;34221;45.296;9.516;2022-08-01T01:20:10;18.75;;;11.57;;
47812;SDS011;34221;45.296;9.516;2022-08-01T01:20:30;19.75;;;12.30;;
47812;SDS011;34221;45.296;9.516;2022-08-01T01:22:08;16.95;;;11.95;;
47812;SDS011;34221;45.296;9.516;2022-08-01T01:23:39;12.20;;;10.73;;
47812;SDS011;34221;45.296;9.516;2022-08-01T01:25:46;14.10;;;11.48;;
47812;SDS011;34221;45.296;9.516;2022-08-01T01:28:48;15.07;;;11.57;;
47812;SDS011;34221;45.296;9.516;2022-08-01T01:30:22;15.00;;;11.05;;
47812;SDS011;34221;45.296;9.516;2022-08-01T01:30:39;16.85;;;11.57;;
47812;SDS011;34221;45.296;9.516;2022-08-01T01:30:57;16.95;;;12.18;;
47812;SDS011;34221;45.296;9.516;2022-08-01T01:31:14;13.48;;;11.15;;
47812;SDS011;34221;45.296;9.516;2022-08-01T01:31:31;13.70;;;11.40;;
47812;SDS011;34221;45.296;9.516;2022-08-01T01:31:59;14.70;;;11.45;;
47812;SDS011;34221;45.296;9.516;2022-08-01T01:32:39;17.08;;;11.75;;
47812;SDS011;34221;45.296;9.516;2022-08-01T01:33:02;16.42;;;11.88;;
47812;SDS011;34221;45.296;9.516;2022-08-01T01:33:21;13.87;;;11.63;;
47812;SDS011;34221;45.296;9.516;2022-08-01T01:33:42;16.30;;;12.45;;
47812;SDS011;34221;45.296;9.516;2022-08-01T01:33:57;15.20;;;11.93;;
47812;SDS011;34221;45.296;9.516;2022-08-01T01:34:15;14.77;;;11.38;;
47812;SDS011;34221;45.296;9.516;2022-08-01T01:34:34;14.65;;;11.27;;
47812;SDS011;34221;45.296;9.516;2022-08-01T01:34:52;15.82;;;11.65;;
47812;SDS011;34221;45.296;9.516;2022-08-01T01:35:10;15.43;;;11.75;;
47812;SDS011;34221;45.296;9.516;2022-08-01T01:35:47;15.20;;;11.27;;
47812;SDS011;34221;45.296;9.516;2022-08-01T01:36:08;15.35;;;11.25;;
47812;SDS011;34221;45.296;9.516;2022-08-01T01:36:25;14.90;;;11.38;;
47812;SDS011;34221;45.296;9.516;2022-08-01T01:36:41;13.80;;;11.30;;
47812;SDS011;34221;45.296;9.516;2022-08-01T01:36:57;15.20;;;11.45;;
47812;SDS011;34221;45.296;9.516;2022-08-01T01:37:17;15.90;;;11.30;;
47812;SDS011;34221;45.296;9.516;2022-08-01T01:37:34;15.00;;;11.52;;
47812;SDS011;34221;45.296;9.516;2022-08-01T01:37:54;14.52;;;11.07;;
47812;SDS011;34221;45.296;9.516;2022-08-01T01:38:26;19.27;;;11.75;;
47812;SDS011;34221;45.296;9.516;2022-08-01T01:38:46;17.77;;;11.35;;
47812;SDS011;34221;45.296;9.516;2022-08-01T01:39:02;15.80;;;11.23;;
47812;SDS011;34221;45.296;9.516;2022-08-01T01:39:17;16.23;;;11.13;;
47812;SDS011;34221;45.296;9.516;2022-08-01T01:39:34;17.35;;;11.40;;
47812;SDS011;34221;45.296;9.516;2022-08-01T01:39:51;18.60;;;11.70;;
47812;SDS011;34221;45.296;9.516;2022-08-01T01:40:07;16.73;;;11.68;;
47812;SDS011;34221;45.296;9.516;2022-08-01T01:40:25;14.88;;;11.60;;
47812;SDS011;34221;45.296;9.516;2022-08-01T01:40:41;15.15;;;11.50;;
47812;SDS011;34221;45.296;9.516;2022-08-01T01:40:57;16.25;;;11.30;;
47812;SDS011;34221;45.296;9.516;2022-08-01T01:41:15;17.25;;;11.27;;
47812;SDS011;34221;45.296;9.516;2022-08-01T01:41:32;16.67;;;11.43;;
47812;SDS011;34221;45.296;9.516;2022-08-01T01:41:49;18.83;;;12.27;;
47812;SDS011;34221;45.296;9.516;2022-08-01T01:42:08;18.15;;;12.23;;
47812;SDS011;34221;45.296;9.516;2022-08-01T01:42:23;16.63;;;11.73;;
47812;SDS011;34221;45.296;9.516;2022-08-01T01:42:41;18.30;;;12.02;;
47812;SDS011;34221;45.296;9.516;2022-08-01T01:42:57;18.73;;;12.25;;
47812;SDS011;34221;45.296;9.516;2022-08-01T01:43:12;15.57;;;12.20;;
47812;SDS011;34221;45.296;9.516;2022-08-01T01:43:30;16.48;;;12.25;;
47812;SDS011;34221;45.296;9.516;2022-08-01T01:43:47;17.35;;;11.85;;
47812;SDS011;34221;45.296;9.516;2022-08-01T01:44:05;15.70;;;12.30;;
47812;SDS011;34221;45.296;9.516;2022-08-01T01:44:22;14.98;;;12.15;;
47812;SDS011;34221;45.296;9.516;2022-08-01T01:44:38;16.65;;;12.07;;
47812;SDS011;34221;45.296;9.516;2022-08-01T01:44:54;17.05;;;12.23;;
47812;SDS011;34221;45.296;9.516;2022-08-01T01:45:09;16.00;;;12.95;;
47812;SDS011;34221;45.296;9.516;2022-08-01T01:45:25;15.77;;;13.18;;
47812;SDS011;34221;45.296;9.516;2022-08-01T01:45:41;17.00;;;12.73;;
47812;SDS011;34221;45.296;9.516;2022-08-01T01:45:58;15.68;;;11.98;;
47812;SDS011;34221;45.296;9.516;2022-08-01T01:46:17;16.10;;;12.18;;
47812;SDS011;34221;45.296;9.516;2022-08-01T01:46:41;16.08;;;12.75;;
47812;SDS011;34221;45.296;9.516;2022-08-01T01:46:57;16.90;;;12.40;;
47812;SDS011;34221;45.296;9.516;2022-08-01T01:47:13;15.82;;;12.27;;
47812;SDS011;34221;45.296;9.516;2022-08-01T01:47:31;17.60;;;12.95;;
47812;SDS011;34221;45.296;9.516;2022-08-01T01:47:47;16.27;;;12.43;;
47812;SDS011;34221;45.296;9.516;2022-08-01T01:48:03;14.68;;;12.27;;
47812;SDS011;34221;45.296;9.516;2022-08-01T01:48:19;16.73;;;12.20;;
47812;SDS011;34221;45.296;9.516;2022-08-01T01:48:35;18.05;;;11.63;;
47812;SDS011;34221;45.296;9.516;2022-08-01T01:48:53;14.95;;;11.45;;
47812;SDS011;34221;45.296;9.516;2022-08-01T01:49:10;16.67;;;11.90;;
47812;SDS011;34221;45.296;9.516;2022-08-01T01:49:27;18.85;;;12.23;;
47812;SDS011;34221;45.296;9.516;2022-08-01T01:49:45;17.55;;;12.13;;
47812;SDS011;34221;45.296;9.516;2022-08-01T01:50:21;16.90;;;12.15;;
47812;SDS011;34221;45.296;9.516;2022-08-01T01:50:37;16.52;;;12.73;;
47812;SDS011;34221;45.296;9.516;2022-08-01T01:50:53;19.52;;;12.65;;
47812;SDS011;34221;45.296;9.516;2022-08-01T01:51:10;17.05;;;11.93;;
47812;SDS011;34221;45.296;9.516;2022-08-01T01:51:27;15.15;;;12.20;;
47812;SDS011;34221;45.296;9.516;2022-08-01T01:51:43;16.25;;;12.35;;
47812;SDS011;34221;45.296;9.516;2022-08-01T01:52:00;18.38;;;12.68;;
47812;SDS011;34221;45.296;9.516;2022-08-01T01:52:18;17.20;;;12.43;;
47812;SDS011;34221;45.296;9.516;2022-08-01T01:52:33;16.02;;;12.25;;
47812;SDS011;34221;45.296;9.516;2022-08-01T01:52:49;15.93;;;12.52;;
47812;SDS011;34221;45.296;9.516;2022-08-01T01:53:05;15.18;;;13.05;;
47812;SDS011;34221;45.296;9.516;2022-08-01T01:53:22;17.52;;;13.25;;
47812;SDS011;34221;45.296;9.516;2022-08-01T01:53:38;17.00;;;12.88;;